Mohamed Hamdi

Olheiro-Chefe - Al Ahly
17 Jul 2027
Sábado
Processo

Personalidade

Adaptabilidade (15) Ambição (16) Controvérsia (16) Lealdade (13) Pressão (20) Profissionalismo (13) Espírito Esportivo (3) Temperamento (17)

Perfil

Estilo de Treinamento Democrático
Licença Nacional A
Determinação 5
Gestão de Pessoas 7
Motivação 8
Disciplina 9
Satisfação no Trabalho
100%
Fadiga
0%
Função Olheiro-Chefe
Salário 37.7K p/s
Contrato 14.03.2029

Desempenho

Comportamento Bom
Eficácia do Treinamento
46%
Desenvolvimento do Jogador
45%
Prevenção de Lesões
70%
Implementação Tática
50%

Eventos Recentes

Participou de uma reunião de recrutamento agora
Recomendou um alvo de transferência agora
Recomendou um alvo de transferência agora
Recomendou um alvo de transferência agora
Recomendou um alvo de transferência agora
Recomendou um alvo de transferência agora
Avaliou um jogador agora
Avaliou um jogador agora

Monitorando agora

236
Jogador Clube Status Habilidade Confiança Observado Última observação Último voto
Mattia Viti Sampdoria Ativo 124 / 129 40% 2 16.07.2027 -
Leo Østigård Genoa Ativo 133 / 142 40% 1 16.07.2027 -
Toma Bašić Venezia Ativo 133 / 135 40% 1 16.07.2027 -
Musab Al-Juwayr Al-Qadisiyah Ativo 127 / 129 40% 12 14.07.2027 -
Tommaso Barbieri Cremonese Ativo 122 / 138 40% 2 14.07.2027 -
Ben Sheaf Wrexham Ativo 132 / 129 40% 1 14.07.2027 -
Víctor Chust Elche Ativo 146 / 128 40% 2 13.07.2027 -
Alex Palmer Ipswich Town Ativo 142 / 125 40% 1 13.07.2027 -
Carl Rushworth Coventry City Ativo 151 / 140 40% 1 13.07.2027 -
Grégoire Coudert Burnley Ativo 129 / 133 40% 1 13.07.2027 -
Kialonda Gaspar Lecce Ativo 126 / 141 40% 1 13.07.2027 -
Miro Muheim Hamburger SV Ativo 126 / 136 40% 1 13.07.2027 -
Luke McNally Bristol City Ativo 142 / 127 40% 2 12.07.2027 -
Josh Brownhill Al-Shabab Ativo 124 / 141 40% 6 12.07.2027 -
Omar Al Shamsi CSKA Moscow Ativo 128 / 149 40% 5 10.07.2027 -
Emanuele Valeri Parma Ativo 137 / 144 40% 2 10.07.2027 -
Sandi Lovrić Hellas Verona Ativo 128 / 146 40% 1 10.07.2027 -
Zaydou Youssouf Al-Fateh Ativo 122 / 126 40% 9 09.07.2027 -
Josh Doig Sassuolo Ativo 141 / 142 40% 1 09.07.2027 -
Rubens Dinamo Moscow Ativo 131 / 130 40% 3 07.07.2027 -
Erik Lira Cruz Azul Ativo 136 / 130 40% 3 07.07.2027 -
Valentino Lazaro Al Ain Ativo 136 / 142 40% 6 06.07.2027 -
Federico Baschirotto Cremonese Ativo 126 / 143 40% 4 06.07.2027 -
Morten Frendrup Genoa Ativo 132 / 136 40% 1 06.07.2027 -
Mahamadou Doumbia Al-Ittihad Ativo 123 / 140 40% 8 05.07.2027 -
Simone Scuffet Pisa Ativo 120 / 125 40% 2 05.07.2027 -
Felipe Zenobio Tigre Ativo 139 / 131 40% 1 05.07.2027 -
Bruno Méndez Toluca Ativo 131 / 130 40% 1 05.07.2027 -
Marius Marin Al Nasr Ativo 127 / 135 40% 3 03.07.2027 -
Nahitan Nández Al-Qadisiyah Ativo 155 / 152 40% 6 03.07.2027 -
Yacine Adli Al-Shabab Ativo 149 / 140 40% 13 02.07.2027 -
Dion Lopy Al-Ittihad Ativo 124 / 127 40% 12 02.07.2027 -
Sebastiano Luperto Cremonese Ativo 143 / 143 40% 2 02.07.2027 -
Armel Bella-Kotchap Venezia Ativo 122 / 132 40% 1 01.07.2027 -
Nikita Haikin Spartak Moscow Ativo 155 / 134 40% 2 30.06.2027 -
Nathan Trott Cardiff City Ativo 126 / 128 40% 1 30.06.2027 -
Franco Petroli Lanús Ativo 126 / 134 40% 1 30.06.2027 -
Adryelson Al Wasl Ativo 123 / 128 40% 5 29.06.2027 -
Ângelo Al-Nassr Ativo 142 / 131 40% 10 29.06.2027 -
Ali Majrashi Al-Ahli Ativo 120 / 137 40% 8 29.06.2027 -
Matías Palacios Al Ain Ativo 135 / 137 40% 10 26.06.2027 -
Kian Fitz-Jim Torino Ativo 144 / 145 40% 1 26.06.2027 -
Mohamed Camara Maccabi Tel Aviv Ativo 143 / 137 40% 1 26.06.2027 -
Federico Pereira Huracán Ativo 147 / 138 40% 1 25.06.2027 -
Yannik Engelhardt SC Freiburg Ativo 130 / 128 40% 1 25.06.2027 -
Alfonso Pedraza Lazio Ativo 149 / 149 40% 1 25.06.2027 -
Gianluca Busio Venezia Ativo 126 / 139 40% 2 24.06.2027 -
Zakaria El Ouahdi Hamburger SV Ativo 142 / 141 40% 2 24.06.2027 -
Mauro Arambarri River Plate Ativo 153 / 149 40% 1 24.06.2027 -
Svetoslav Vutsov Levski Ativo 121 / 121 40% 1 23.06.2027 -
Maílson Al-Taawoun Ativo 143 / 127 40% 1 23.06.2027 -
Bento Lokomotiv Moscow Ativo 148 / 147 40% 2 22.06.2027 -
Adrian Šemper Al-Fateh Ativo 121 / 135 40% 1 22.06.2027 -
Kepa Arrizabalaga Arsenal Ativo 161 / 150 40% 1 22.06.2027 -
Denis Adamov Zenit Ativo 128 / 130 40% 1 21.06.2027 -
John Victor Nottingham Forest Ativo 138 / 130 40% 1 21.06.2027 -
Ismail Al Hammadi Al Ain Ativo 162 / 150 40% 1 19.06.2027 -
Richard Ledezma River Plate Ativo 128 / 136 40% 1 18.06.2027 -
Timothy Castagne Fulham Ativo 148 / 140 40% 1 16.06.2027 -
Pedro Malheiro Al Wasl Ativo 146 / 134 40% 10 15.06.2027 -
Diego Costa Krasnodar Ativo 125 / 133 40% 1 15.06.2027 -
Szabolcs Szoboszlai Haladas Ativo 151 / 133 40% 1 14.06.2027 -
Maxence Caqueret Como Ativo 144 / 130 40% 1 14.06.2027 -
Michael Zetterer Leeds United Ativo 137 / 138 40% 2 11.06.2027 -
Mateusz Kochalski Qarabag Ativo 135 / 141 40% 2 11.06.2027 -
Filip Stanković Venezia Ativo 142 / 131 40% 1 11.06.2027 -
Lorenzo Palmisani Frosinone Ativo 127 / 138 40% 1 10.06.2027 -
Facundo Cambeses Racing Club Ativo 122 / 129 40% 1 09.06.2027 -
Dinko Horkaš Al Wasl Ativo 130 / 134 40% 1 09.06.2027 -
Sebastián Meza Huracán Ativo 131 / 129 40% 2 07.06.2027 -
Viktor Johansson Stoke City Ativo 140 / 144 40% 1 07.06.2027 -
Christian Walton Norwich City Ativo 135 / 127 40% 1 07.06.2027 -
Predrag Rajković Al-Nassr Ativo 143 / 141 40% 1 06.06.2027 -
Federico Ravaglia Bologna Ativo 143 / 129 40% 1 06.06.2027 -
Dominik Takáč Slovan Bratislava Ativo 122 / 124 40% 2 05.06.2027 -
Anthony Patterson Wrexham Ativo 128 / 136 40% 2 04.06.2027 -
Isaac Success El Masry Relatório pronto 101 / 113 65% 1 03.06.2027 -
Sergej Milinković-Savić Al-Hilal Ativo 150 / 157 40% 8 01.06.2027 -
Konstantin Tyukavin Arsenal Ativo 132 / 133 66% 1 01.06.2027 Aprovar
Gonzalo Plata Rosenborg Ativo 133 / 134 66% 1 01.06.2027 Aprovar
Matteo Lovato Padova Ativo 125 / 121 40% 1 01.06.2027 -
Youssef En-Nesyri Al-Ittihad Ativo 137 / 141 40% 2 31.05.2027 -
Pablo Felipe West Ham United Ativo 145 / 129 40% 1 31.05.2027 -
Kortney Hause Bristol Rovers Ativo 121 / 112 40% 5 29.05.2027 -
Brodie Spencer Oxford United Ativo 127 / 128 40% 3 28.05.2027 -
Isma Ruiz Córdoba Ativo 128 / 128 40% 1 28.05.2027 -
James Morris Leyton Orient Ativo 105 / 117 40% 2 27.05.2027 -
Mamadou Coulibaly Al Jazira Ativo 133 / 124 40% 6 26.05.2027 -
Hamza Choudhury Leicester City Ativo 139 / 121 40% 1 26.05.2027 -
Guille Rosas Gijón Ativo 146 / 136 40% 1 25.05.2027 -
Luis Milla Como Ativo 138 / 152 40% 2 24.05.2027 -
Trezeguet Al-Riyadh Ativo 139 / 132 40% 2 23.05.2027 -
Julio Alonso Huesca Ativo 117 / 116 40% 2 23.05.2027 -
Josh Murphy Portsmouth Ativo 118 / 125 40% 2 23.05.2027 -
Paik Seung-Ho Birmingham Ativo 118 / 133 40% 2 23.05.2027 -
Serginho Al Wasl Ativo 132 / 128 40% 2 22.05.2027 -
Karim El Berkaoui Al Dhafra Ativo 122 / 111 40% 2 21.05.2027 -
Othmane Maamma Watford Ativo 115 / 123 40% 2 21.05.2027 -
Lee Buchanan Sheffield Wednesday Ativo 130 / 126 40% 2 20.05.2027 -
Ilario Monterisi Frosinone Ativo 122 / 124 40% 2 20.05.2027 -
Charles Pickel Sharjah Ativo 120 / 125 40% 6 18.05.2027 -
Rúben Neves Al-Hilal Ativo 156 / 157 40% 3 18.05.2027 -
Jobson Al Dhafra Ativo 120 / 117 40% 2 17.05.2027 -
Brian De Keersmaecker Oxford United Ativo 116 / 116 40% 2 17.05.2027 -
Christos Mouzakitis Hull City Ativo 127 / 129 40% 1 17.05.2027 -
Adis Jašić Al Ain Ativo 139 / 128 40% 7 15.05.2027 -
Loreintz Rosier Al-Hazem Ativo 109 / 115 40% 1 15.05.2027 -
Victor Torp Coventry City Ativo 141 / 131 40% 4 14.05.2027 -
Alfie Gilchrist West Bromwich Albion Ativo 128 / 127 40% 2 14.05.2027 -
Matt Clarke Derby County Ativo 120 / 133 40% 1 13.05.2027 -
Miguel Crespo Al-Khaleej Ativo 113 / 126 40% 1 13.05.2027 -
Casper De Norre Millwall Ativo 131 / 122 40% 2 11.05.2027 -
Théo Hernández Al-Hilal Ativo 148 / 145 40% 1 11.05.2027 -
Ross McCrorie Bristol City Ativo 131 / 133 40% 3 10.05.2027 -
Max Conway Bolton Wanderers Ativo 132 / 125 40% 1 09.05.2027 -
Mohamed Simakan Al-Nassr Ativo 132 / 136 40% 8 08.05.2027 -
Willyan Rocha Al Jazira Ativo 135 / 123 40% 5 08.05.2027 -
Hugo Moura Al-Fayha Ativo 133 / 122 40% 2 07.05.2027 -
Ben Nelson Leicester City Ativo 145 / 132 40% 5 06.05.2027 -
Georges-Kévin Nkoudou Al-Diriyah Ativo 136 / 134 40% 2 06.05.2027 -
Ben Chrisene Sheffield Wednesday Ativo 113 / 130 40% 2 06.05.2027 -
Helinho Toluca Ativo 148 / 141 40% 1 06.05.2027 -
Camilo Durán Bloemfontein Celtic Ativo 133 / 117 40% 8 05.05.2027 -
Matheus Gonçalves Al-Ahli Ativo 136 / 125 40% 2 05.05.2027 -
Ibrahim Bayesh Al Dhafra Ativo 133 / 126 40% 2 04.05.2027 -
Giorgi Kvernadze Frosinone Ativo 126 / 118 40% 1 04.05.2027 -
Farid El Melali CR Belouizdad Ativo 131 / 125 40% 1 04.05.2027 -
Mohamed Zoungrana MC Alger Ativo 111 / 124 40% 3 03.05.2027 -
Lewis Bate Stockport County Ativo 130 / 124 40% 2 01.05.2027 -
Gabriel Osho Cardiff City Ativo 130 / 131 40% 2 30.04.2027 -
Lucas Pimenta Al Wahda Ativo 112 / 116 40% 1 29.04.2027 -
Christian Krasnodar Ativo 149 / 140 40% 4 28.04.2027 -
Kellen Fisher Norwich City Ativo 111 / 117 40% 2 28.04.2027 -
Morlaye Sylla Damac Ativo 117 / 127 40% 7 26.04.2027 -
Christopher Bonsu Baah Al-Qadisiyah Ativo 134 / 119 40% 2 26.04.2027 -
Fashion Sakala MC Alger Ativo 138 / 123 40% 2 26.04.2027 -
Peter Olayinka Al-Wehda Ativo 133 / 115 40% 1 26.04.2027 -
Roger Fernandes Al-Ittihad Ativo 134 / 146 40% 1 23.04.2027 -
Angelo Fulgini Al-Khaleej Ativo 117 / 132 40% 1 22.04.2027 -
Mathias Jørgensen Blackburn Rovers Ativo 126 / 114 40% 1 22.04.2027 -
Lewis O'Brien Wrexham Ativo 123 / 122 40% 1 19.04.2027 -
Jordan Lotomba Bloemfontein Celtic Ativo 130 / 126 40% 4 17.04.2027 -
Gastón Álvarez Al-Qadisiyah Ativo 137 / 134 40% 9 17.04.2027 -
Moussa Diarra Al Wahda Ativo 131 / 135 40% 7 17.04.2027 -
Atsuki Ito Bolton Wanderers Ativo 116 / 126 40% 1 16.04.2027 -
Marouan Azarkan Al Nasr Ativo 134 / 116 40% 4 14.04.2027 -
Cameron Pring Bristol City Ativo 129 / 131 40% 2 14.04.2027 -
Joe Aribo Southampton Ativo 138 / 133 40% 2 14.04.2027 -
Eoin Toal Bolton Wanderers Ativo 108 / 111 40% 1 14.04.2027 -
Isaiah Jones Luton Town Ativo 125 / 117 40% 2 09.04.2027 -
Mohamed Kanno Al-Hilal Ativo 133 / 127 40% 3 09.04.2027 -
Jacob Greaves Ipswich Town Ativo 131 / 128 40% 1 09.04.2027 -
Pelle Mattsson Norwich City Ativo 112 / 125 40% 1 07.04.2027 -
Mohammed Abu Al-Shamat Al-Qadisiyah Ativo 120 / 127 40% 6 06.04.2027 -
Marc Bola Watford Ativo 108 / 125 40% 1 04.04.2027 -
Oliver Arblaster Sheffield United Ativo 125 / 131 40% 1 03.04.2027 -
Relebohile Mofokeng Orlando Pirates Ativo 124 / 120 40% 2 02.04.2027 -
Nuno Santos Mamelodi Sundowns Ativo 117 / 130 40% 2 02.04.2027 -
Anthony Oyono Frosinone Ativo 126 / 126 40% 1 01.04.2027 -
Ollie Watkins Al-Hilal Ativo 150 / 149 40% 2 31.03.2027 -
Bassem El Hadary Masr El Makasa Ativo 115 / 119 40% 1 29.03.2027 Mais informações
Kayne Ramsay Charlton Athletic Ativo 122 / 132 40% 1 28.03.2027 -
Kennedy Boateng Al-Fateh Ativo 128 / 131 40% 3 23.03.2027 -
José Córdoba Norwich City Ativo 131 / 124 40% 3 23.03.2027 -
Turki Al-Ammar Al-Qadisiyah Ativo 111 / 124 40% 1 21.03.2027 -
Josh Edwards Charlton Athletic Ativo 125 / 117 40% 2 19.03.2027 -
Teden Mengi Luton Town Ativo 117 / 121 40% 1 19.03.2027 -
Jacques Ekomié Wrexham Ativo 128 / 124 40% 2 14.03.2027 -
Rafael Rodrigues Al Ain Ativo 112 / 129 40% 3 07.03.2027 -
Nicolás Giménez Al Wasl Ativo 139 / 124 40% 2 05.03.2027 -
Jaime Seoane Al-Faisaly Ativo 138 / 142 40% 1 03.03.2027 -
Alaeddine Zouhir Al Wahda Ativo 127 / 114 40% 1 28.02.2027 -
Tyrell Malacia Derby County Ativo 149 / 136 40% 2 27.02.2027 -
Kaveh Azmoun Siah Jamegan Ativo 118 / 123 40% 2 24.02.2027 -
Khalid Juma Al Ahli Ativo 138 / 138 40% 5 23.02.2027 -
Ousmane Diakité West Bromwich Albion Ativo 113 / 133 40% 1 23.02.2027 -
Edoardo Bove Watford Ativo 136 / 122 40% 1 22.02.2027 -
Erik Sharjah Ativo 132 / 117 40% 1 21.02.2027 -
Nobel Mendy Hull City Ativo 139 / 135 40% 1 20.02.2027 -
Bandar Al Kamali Al Shaab Ativo 109 / 119 40% 1 18.02.2027 -
Gustavo Mantuan Zenit Ativo 139 / 127 40% 2 12.02.2027 -
Callum Doyle Wrexham Ativo 126 / 126 40% 1 11.02.2027 -
Imrân Louza Watford Ativo 135 / 132 40% 1 10.02.2027 -
Alfie Doughty Millwall Ativo 124 / 129 40% 2 09.02.2027 -
Florentino Luís Ipswich Town Ativo 151 / 139 40% 1 06.02.2027 -
Maicon Levski Ativo 117 / 120 40% 1 26.01.2027 -
Abdoulkarim Traoré Al Ain Ativo 135 / 134 40% 1 26.01.2027 -
Danilo Veiga Lecce Ativo 132 / 127 40% 1 24.01.2027 -
Marcus Meloni Al Jazira Ativo 112 / 126 40% 2 23.01.2027 -
Adam Gnezda Čerin Al Wahda Ativo 111 / 114 40% 1 23.01.2027 -
Muhannad Al-Shanqiti Al-Ittihad Ativo 111 / 115 40% 1 23.01.2027 -
Siaka Sidibé Al Wasl Ativo 113 / 122 40% 1 22.01.2027 -
Valentin Atangana Al-Ahli Ativo 119 / 134 40% 1 21.01.2027 -
Amir Hossein Hosseinzadeh Tractor Ativo 131 / 124 40% 1 19.01.2027 -
Faisal Al-Ghamdi Al-Ittihad Ativo 107 / 128 40% 2 15.01.2027 -
Isaac Solet CSKA Sofia Ativo 130 / 113 40% 1 15.01.2027 -
Mostafa El Aash El Masry Ativo 116 / 105 65% 1 07.01.2027 Aprovar
Bitello Empoli Ativo 135 / 135 68% 1 01.01.2027 Aprovar
Jerome Karelse Golden Arrows Ativo 104 / 111 40% 5 30.12.2026 -
Aschraf El Mahdioui Al-Taawoun Ativo 122 / 122 40% 1 30.12.2026 -
Hamdi Labidi Olympique Akbou Ativo 111 / 106 40% 3 24.12.2026 -
Abdullah Al-Hamddan Al-Nassr Ativo 119 / 104 40% 2 24.12.2026 -
Jack Hendry Al-Ettifaq Ativo 124 / 132 40% 2 19.12.2026 -
Otávio Al-Qadisiyah Ativo 151 / 131 40% 4 18.12.2026 -
Mohanad Ali Dibba Ativo 113 / 110 40% 2 17.12.2026 -
Youssef Belammari Smouha Ativo 117 / 118 40% 4 15.12.2026 -
Nasser Obaid Al Ahli Ativo 114 / 111 40% 3 14.12.2026 -
Mohamed Saliou Bangoura MC Alger Ativo 111 / 102 40% 1 14.12.2026 -
Younes El Bahraoui Al-Taawoun Ativo 117 / 117 40% 6 08.12.2026 -
Ibrahim Al Hammadi Al Shaab Ativo 102 / 102 40% 3 08.12.2026 -
Radek Šiler Podbrezova Ativo 115 / 118 40% 1 08.12.2026 -
Faisal Al-Abdulwahed Al-Fateh Ativo 98 / 85 40% 1 05.12.2026 -
Merih Demiral Al-Ahli Ativo 142 / 131 40% 2 02.12.2026 -
Moses Twum Haras El Hodoud Ativo 106 / 96 40% 2 26.11.2026 -
Ousmane Camara Sharjah Ativo 118 / 123 40% 2 18.11.2026 -
Ondrej Duda CSKA Moscow Ativo 143 / 129 40% 1 18.11.2026 -
Fahad Ismail Al Shabab Ativo 126 / 110 40% 4 15.11.2026 -
Wandile Duba Maritzburg United Ativo 114 / 98 40% 3 15.11.2026 -
Hazzaa Al-Ghamdi Damac Ativo 90 / 97 40% 1 14.11.2026 -
Isaac Tshibangu Emirates Club Ativo 115 / 107 40% 1 13.11.2026 -
Albert Amoah Hajer Ativo 101 / 103 40% 3 12.11.2026 -
Nabil Alioui Najran Ativo 117 / 101 40% 3 08.11.2026 -
Redouane Zerdoum ASO Chlef Ativo 90 / 89 40% 3 06.11.2026 -
Luther Tau SuperSport United Ativo 120 / 114 40% 3 06.11.2026 -
Robert Mizo Aswan Ativo 102 / 104 40% 2 05.11.2026 -
Brayan Gil Baltika Ativo 125 / 129 40% 2 29.10.2026 -
Fahad Al-Zubaidi Al-Fateh Ativo 101 / 117 40% 1 25.10.2026 -
Tomás Chancalay Minnesota United FC Ativo 132 / 126 40% 1 23.10.2026 -
Etiosa Ighodaro Kaizer Chiefs Ativo 97 / 113 40% 2 10.10.2026 -
Ammar Ramadan DAC Dunajska Streda Ativo 112 / 133 40% 1 05.10.2026 Mais informações
Ahmed El Armouty El Masry Ativo 94 / 88 65% 1 10.08.2026 Aprovar
Arthur Beroe Ativo 99 / 115 40% 1 03.08.2026 -
Matevž Vidovšek Olimpija Ljubljana Ativo 121 / 111 40% 1 03.08.2026 -
Federico Viñas Toluca Ativo 131 / 127 40% 1 02.08.2026 -
Liel Abada Charlotte Football Club Ativo 115 / 138 40% 1 02.08.2026 -
Lukas Nmecha Leeds United Ativo 129 / 130 40% 1 01.08.2026 -